createdAt,value
2024-04-18T00:09:59.149Z,42.74
2024-04-18T00:20:06.421Z,42.68
2024-04-18T00:30:13.750Z,42.70
2024-04-18T00:40:21.524Z,42.73
2024-04-18T00:50:29.012Z,42.61
2024-04-18T01:00:35.715Z,42.08
2024-04-18T01:10:42.250Z,41.40
2024-04-18T01:20:48.984Z,41.28
2024-04-18T01:31:00.157Z,41.40
2024-04-18T01:41:06.819Z,41.46
2024-04-18T01:51:13.401Z,41.46
2024-04-18T02:01:25.941Z,41.43
2024-04-18T02:11:33.009Z,41.43
2024-04-18T02:21:39.944Z,41.50
2024-04-18T02:31:46.568Z,41.49
2024-04-18T02:41:53.890Z,41.55
2024-04-18T02:52:00.604Z,41.57
2024-04-18T03:02:08.017Z,41.50
2024-04-18T03:12:14.396Z,41.50
2024-04-18T03:22:20.901Z,41.40
2024-04-18T03:32:27.554Z,41.37
2024-04-18T03:42:34.632Z,41.58
2024-04-18T03:52:41.766Z,41.51
2024-04-18T04:02:48.862Z,41.47
2024-04-18T04:12:55.545Z,41.50
2024-04-18T04:23:02.028Z,41.49
2024-04-18T04:33:08.953Z,41.58
2024-04-18T04:43:16.334Z,41.63
2024-04-18T04:53:22.686Z,41.49
2024-04-18T05:03:29.971Z,41.55
2024-04-18T05:13:36.835Z,41.65
2024-04-18T05:23:43.532Z,41.55
2024-04-18T05:33:50.084Z,41.77
2024-04-18T05:43:57.196Z,41.85
2024-04-18T06:04:24.672Z,41.87
2024-04-18T06:14:31.552Z,41.83
2024-04-18T06:24:38.027Z,41.95
2024-04-18T06:34:45.288Z,41.96
2024-04-18T06:44:52.332Z,41.90
2024-04-18T06:54:59.022Z,41.91
2024-04-18T07:05:06.553Z,41.90
2024-04-18T07:15:13.407Z,41.91
2024-04-18T07:25:20.179Z,41.95
2024-04-18T07:35:26.920Z,41.85
2024-04-18T07:45:36.786Z,41.90
2024-04-18T07:55:44.570Z,41.83
2024-04-18T08:05:53.256Z,41.80
2024-04-18T08:16:05.016Z,41.70
2024-04-18T08:26:11.602Z,41.64
2024-04-18T08:36:18.397Z,41.59
2024-04-18T08:46:27.226Z,41.67
2024-04-18T08:56:35.995Z,41.63
2024-04-18T09:06:42.949Z,41.49
2024-04-18T09:16:49.610Z,41.39
2024-04-18T09:26:56.861Z,41.42
2024-04-18T09:37:07.355Z,41.40
2024-04-18T09:47:16.481Z,41.44
2024-04-18T09:57:24.450Z,41.44
2024-04-18T10:07:32.910Z,41.32
2024-04-18T10:17:41.845Z,41.23
2024-04-18T10:27:48.333Z,41.21
2024-04-18T10:37:56.119Z,41.19
2024-04-18T10:48:04.756Z,41.11
2024-04-18T10:58:16.687Z,41.19
2024-04-18T11:08:23.436Z,41.15
2024-04-18T11:18:30.797Z,41.17
2024-04-18T11:28:41.666Z,41.05
2024-04-18T11:38:48.884Z,41.14
2024-04-18T11:48:56.383Z,41.04
2024-04-18T11:59:04.193Z,41.06
2024-04-18T12:09:11.138Z,41.08
2024-04-18T12:19:18.262Z,41.18
2024-04-18T12:29:25.085Z,41.13
2024-04-18T12:39:31.685Z,41.09
2024-04-18T12:49:42.149Z,41.10
2024-04-18T12:59:48.763Z,41.12
2024-04-18T13:09:56.644Z,41.31
2024-04-18T13:20:03.819Z,41.32
2024-04-18T13:30:11.464Z,41.35
2024-04-18T13:40:19.163Z,41.31
2024-04-18T13:50:31.735Z,41.34
2024-04-18T14:00:39.131Z,41.30
2024-04-18T14:10:46.190Z,41.31
2024-04-18T14:20:55.150Z,41.40
2024-04-18T14:31:01.810Z,41.48
2024-04-18T14:41:12.105Z,41.64
2024-04-18T14:51:20.201Z,41.67
2024-04-18T15:01:26.580Z,41.50
2024-04-18T15:11:34.375Z,41.36
2024-04-18T15:21:41.170Z,41.14
2024-04-18T15:31:47.728Z,40.97
2024-04-18T15:41:54.789Z,40.92
2024-04-18T15:52:02.186Z,40.95
2024-04-18T16:02:09.964Z,40.88
2024-04-18T16:12:16.963Z,40.96
2024-04-18T16:22:24.284Z,41.01
2024-04-18T16:32:31.024Z,41.06
2024-04-18T16:42:38.143Z,41.12
2024-04-18T16:52:49.561Z,41.09
2024-04-18T17:02:56.261Z,40.99
2024-04-18T17:13:03.151Z,41.05
2024-04-18T17:23:09.774Z,40.87
2024-04-18T17:33:16.478Z,40.78
2024-04-18T17:43:23.730Z,40.89
2024-04-18T17:53:31.144Z,40.86
2024-04-18T18:03:37.500Z,40.82
2024-04-18T18:13:44.211Z,41.01
2024-04-18T18:23:50.770Z,41.14
2024-04-18T18:33:57.279Z,41.37
2024-04-18T18:44:04.237Z,41.42
2024-04-18T18:54:11.481Z,41.61
2024-04-18T19:04:18.744Z,41.73
2024-04-18T19:14:27.754Z,41.78
2024-04-18T19:24:35.036Z,41.71
2024-04-18T19:34:41.971Z,41.85
2024-04-18T19:44:48.507Z,41.99
2024-04-18T19:54:55.952Z,41.89
2024-04-18T20:05:02.425Z,41.99
2024-04-18T20:15:10.097Z,42.26
2024-04-18T20:25:16.617Z,42.30
2024-04-18T20:35:23.611Z,42.24
2024-04-18T20:45:31.533Z,42.31
2024-04-18T20:55:39.110Z,42.32
2024-04-18T21:05:48.069Z,42.35
2024-04-18T21:16:01.236Z,42.37
2024-04-18T21:26:08.034Z,42.51
2024-04-18T21:36:14.364Z,42.53
2024-04-18T21:46:20.973Z,42.60
2024-04-18T21:56:27.606Z,42.53
2024-04-18T22:06:34.933Z,42.61
2024-04-18T22:16:43.857Z,42.44
2024-04-18T22:26:50.423Z,42.46
2024-04-18T22:36:57.178Z,42.46
2024-04-18T22:47:03.817Z,42.60
2024-04-18T22:57:10.206Z,42.55
2024-04-18T23:07:17.277Z,42.53
2024-04-18T23:17:23.883Z,42.49
2024-04-18T23:27:30.959Z,42.60
2024-04-18T23:37:39.565Z,42.64
2024-04-18T23:47:46.057Z,42.70
2024-04-18T23:57:52.787Z,42.73
